sensor_id;sensor_type;location;lat;lon;timestamp;P1;durP1;ratioP1;P2;durP2;ratioP2
62102;SDS011;48077;48.104;11.702;2023-12-07T00:02:46;12.23;;;6.78;;
62102;SDS011;48077;48.104;11.702;2023-12-07T00:05:14;11.63;;;7.00;;
62102;SDS011;48077;48.104;11.702;2023-12-07T00:10:11;10.65;;;7.15;;
62102;SDS011;48077;48.104;11.702;2023-12-07T00:12:39;12.73;;;8.80;;
62102;SDS011;48077;48.104;11.702;2023-12-07T00:15:07;11.35;;;8.15;;
62102;SDS011;48077;48.104;11.702;2023-12-07T00:17:35;12.60;;;8.15;;
62102;SDS011;48077;48.104;11.702;2023-12-07T00:20:03;14.07;;;8.80;;
62102;SDS011;48077;48.104;11.702;2023-12-07T00:22:31;14.75;;;9.95;;
62102;SDS011;48077;48.104;11.702;2023-12-07T00:27:28;13.82;;;8.68;;
62102;SDS011;48077;48.104;11.702;2023-12-07T00:29:56;15.00;;;8.35;;
62102;SDS011;48077;48.104;11.702;2023-12-07T00:32:24;13.38;;;8.38;;
62102;SDS011;48077;48.104;11.702;2023-12-07T00:34:53;13.70;;;7.80;;
62102;SDS011;48077;48.104;11.702;2023-12-07T00:37:21;13.98;;;9.32;;
62102;SDS011;48077;48.104;11.702;2023-12-07T00:42:17;17.67;;;8.93;;
62102;SDS011;48077;48.104;11.702;2023-12-07T00:44:46;13.23;;;8.30;;
62102;SDS011;48077;48.104;11.702;2023-12-07T00:47:14;14.73;;;8.63;;
62102;SDS011;48077;48.104;11.702;2023-12-07T00:49:41;13.10;;;7.82;;
62102;SDS011;48077;48.104;11.702;2023-12-07T00:52:09;13.10;;;8.05;;
62102;SDS011;48077;48.104;11.702;2023-12-07T00:57:06;13.13;;;8.13;;
62102;SDS011;48077;48.104;11.702;2023-12-07T00:59:34;14.43;;;7.13;;
62102;SDS011;48077;48.104;11.702;2023-12-07T01:07:43;15.07;;;11.15;;
62102;SDS011;48077;48.104;11.702;2023-12-07T01:10:12;14.15;;;11.32;;
62102;SDS011;48077;48.104;11.702;2023-12-07T01:12:40;14.02;;;12.52;;
62102;SDS011;48077;48.104;11.702;2023-12-07T01:15:08;15.40;;;11.77;;
62102;SDS011;48077;48.104;11.702;2023-12-07T01:17:36;15.82;;;11.93;;
62102;SDS011;48077;48.104;11.702;2023-12-07T01:20:04;14.88;;;11.43;;
62102;SDS011;48077;48.104;11.702;2023-12-07T01:22:38;15.65;;;11.95;;
62102;SDS011;48077;48.104;11.702;2023-12-07T01:25:08;16.75;;;12.48;;
62102;SDS011;48077;48.104;11.702;2023-12-07T01:27:37;17.13;;;12.07;;
62102;SDS011;48077;48.104;11.702;2023-12-07T01:30:05;17.55;;;13.13;;
62102;SDS011;48077;48.104;11.702;2023-12-07T01:32:34;14.35;;;12.27;;
62102;SDS011;48077;48.104;11.702;2023-12-07T01:35:02;15.80;;;11.88;;
62102;SDS011;48077;48.104;11.702;2023-12-07T01:37:30;17.52;;;11.18;;
62102;SDS011;48077;48.104;11.702;2023-12-07T01:39:58;13.27;;;10.63;;
62102;SDS011;48077;48.104;11.702;2023-12-07T01:42:27;15.15;;;10.63;;
62102;SDS011;48077;48.104;11.702;2023-12-07T01:44:54;15.65;;;12.30;;
62102;SDS011;48077;48.104;11.702;2023-12-07T01:47:22;15.38;;;11.77;;
62102;SDS011;48077;48.104;11.702;2023-12-07T01:49:50;16.05;;;10.30;;
62102;SDS011;48077;48.104;11.702;2023-12-07T01:52:18;14.88;;;11.50;;
62102;SDS011;48077;48.104;11.702;2023-12-07T01:54:48;14.73;;;11.63;;
62102;SDS011;48077;48.104;11.702;2023-12-07T01:57:17;15.52;;;10.45;;
62102;SDS011;48077;48.104;11.702;2023-12-07T01:59:46;17.90;;;12.02;;
62102;SDS011;48077;48.104;11.702;2023-12-07T02:02:14;15.20;;;12.63;;
62102;SDS011;48077;48.104;11.702;2023-12-07T02:04:42;16.00;;;11.35;;
62102;SDS011;48077;48.104;11.702;2023-12-07T02:09:38;17.23;;;12.25;;
62102;SDS011;48077;48.104;11.702;2023-12-07T02:12:06;15.70;;;12.73;;
62102;SDS011;48077;48.104;11.702;2023-12-07T02:14:34;17.35;;;11.23;;
62102;SDS011;48077;48.104;11.702;2023-12-07T02:17:07;21.20;;;12.30;;
62102;SDS011;48077;48.104;11.702;2023-12-07T02:19:47;15.02;;;11.63;;
62102;SDS011;48077;48.104;11.702;2023-12-07T02:22:21;18.80;;;13.20;;
62102;SDS011;48077;48.104;11.702;2023-12-07T02:24:58;17.15;;;12.18;;
62102;SDS011;48077;48.104;11.702;2023-12-07T02:27:36;19.02;;;13.05;;
62102;SDS011;48077;48.104;11.702;2023-12-07T02:30:05;16.15;;;11.55;;
62102;SDS011;48077;48.104;11.702;2023-12-07T02:32:34;17.75;;;12.48;;
62102;SDS011;48077;48.104;11.702;2023-12-07T02:35:02;19.30;;;13.52;;
62102;SDS011;48077;48.104;11.702;2023-12-07T02:37:31;17.33;;;11.98;;
62102;SDS011;48077;48.104;11.702;2023-12-07T02:40:05;19.85;;;13.10;;
62102;SDS011;48077;48.104;11.702;2023-12-07T02:42:38;23.85;;;13.98;;
62102;SDS011;48077;48.104;11.702;2023-12-07T02:45:07;16.67;;;12.15;;
62102;SDS011;48077;48.104;11.702;2023-12-07T02:47:36;18.88;;;13.10;;
62102;SDS011;48077;48.104;11.702;2023-12-07T02:50:05;20.50;;;12.45;;
62102;SDS011;48077;48.104;11.702;2023-12-07T02:52:34;22.90;;;15.18;;
62102;SDS011;48077;48.104;11.702;2023-12-07T02:55:02;19.63;;;12.98;;
62102;SDS011;48077;48.104;11.702;2023-12-07T02:57:31;17.35;;;13.45;;
62102;SDS011;48077;48.104;11.702;2023-12-07T03:00:01;19.67;;;13.52;;
62102;SDS011;48077;48.104;11.702;2023-12-07T03:02:33;16.95;;;12.90;;
62102;SDS011;48077;48.104;11.702;2023-12-07T03:05:01;15.88;;;11.95;;
62102;SDS011;48077;48.104;11.702;2023-12-07T03:07:29;17.67;;;12.90;;
62102;SDS011;48077;48.104;11.702;2023-12-07T03:12:24;16.42;;;12.25;;
62102;SDS011;48077;48.104;11.702;2023-12-07T03:14:52;14.88;;;10.65;;
62102;SDS011;48077;48.104;11.702;2023-12-07T03:17:21;17.05;;;12.55;;
62102;SDS011;48077;48.104;11.702;2023-12-07T03:19:49;15.43;;;11.00;;
62102;SDS011;48077;48.104;11.702;2023-12-07T03:22:17;16.75;;;12.00;;
62102;SDS011;48077;48.104;11.702;2023-12-07T03:24:45;17.38;;;12.45;;
62102;SDS011;48077;48.104;11.702;2023-12-07T03:27:15;15.95;;;11.48;;
62102;SDS011;48077;48.104;11.702;2023-12-07T03:29:42;16.98;;;12.15;;
62102;SDS011;48077;48.104;11.702;2023-12-07T03:32:10;20.15;;;12.90;;
62102;SDS011;48077;48.104;11.702;2023-12-07T03:34:39;16.85;;;11.73;;
62102;SDS011;48077;48.104;11.702;2023-12-07T03:37:07;18.27;;;12.68;;
62102;SDS011;48077;48.104;11.702;2023-12-07T03:39:34;15.38;;;11.65;;
62102;SDS011;48077;48.104;11.702;2023-12-07T03:42:02;14.90;;;9.00;;
62102;SDS011;48077;48.104;11.702;2023-12-07T03:44:50;14.93;;;11.60;;
62102;SDS011;48077;48.104;11.702;2023-12-07T03:47:18;15.40;;;11.43;;
62102;SDS011;48077;48.104;11.702;2023-12-07T03:49:47;16.05;;;11.20;;
62102;SDS011;48077;48.104;11.702;2023-12-07T03:52:15;17.75;;;12.25;;
62102;SDS011;48077;48.104;11.702;2023-12-07T03:54:42;14.07;;;12.10;;
62102;SDS011;48077;48.104;11.702;2023-12-07T03:57:10;16.40;;;11.05;;
62102;SDS011;48077;48.104;11.702;2023-12-07T03:59:38;17.13;;;11.25;;
62102;SDS011;48077;48.104;11.702;2023-12-07T04:02:05;15.10;;;11.00;;
62102;SDS011;48077;48.104;11.702;2023-12-07T04:04:33;12.63;;;10.23;;
62102;SDS011;48077;48.104;11.702;2023-12-07T04:07:03;14.00;;;11.15;;
62102;SDS011;48077;48.104;11.702;2023-12-07T04:09:31;15.95;;;11.20;;
62102;SDS011;48077;48.104;11.702;2023-12-07T04:11:59;15.20;;;11.20;;
62102;SDS011;48077;48.104;11.702;2023-12-07T04:14:26;14.82;;;11.13;;
62102;SDS011;48077;48.104;11.702;2023-12-07T04:16:54;12.13;;;10.00;;
62102;SDS011;48077;48.104;11.702;2023-12-07T04:19:22;14.93;;;11.75;;
62102;SDS011;48077;48.104;11.702;2023-12-07T04:21:49;16.15;;;11.07;;
62102;SDS011;48077;48.104;11.702;2023-12-07T04:24:18;14.35;;;11.82;;
62102;SDS011;48077;48.104;11.702;2023-12-07T04:26:46;14.45;;;10.02;;
62102;SDS011;48077;48.104;11.702;2023-12-07T04:29:15;14.88;;;11.32;;
62102;SDS011;48077;48.104;11.702;2023-12-07T04:31:43;14.45;;;11.50;;
62102;SDS011;48077;48.104;11.702;2023-12-07T04:34:11;12.57;;;10.18;;
62102;SDS011;48077;48.104;11.702;2023-12-07T04:36:39;13.35;;;9.75;;
62102;SDS011;48077;48.104;11.702;2023-12-07T04:39:06;14.82;;;9.95;;
62102;SDS011;48077;48.104;11.702;2023-12-07T04:41:35;13.00;;;10.55;;
62102;SDS011;48077;48.104;11.702;2023-12-07T04:44:03;11.25;;;7.40;;
62102;SDS011;48077;48.104;11.702;2023-12-07T04:46:31;13.40;;;10.05;;
62102;SDS011;48077;48.104;11.702;2023-12-07T04:49:00;13.75;;;8.68;;
62102;SDS011;48077;48.104;11.702;2023-12-07T04:51:28;13.25;;;11.25;;
62102;SDS011;48077;48.104;11.702;2023-12-07T04:53:55;12.50;;;10.70;;
62102;SDS011;48077;48.104;11.702;2023-12-07T04:56:40;13.63;;;10.63;;
62102;SDS011;48077;48.104;11.702;2023-12-07T04:59:08;13.80;;;10.32;;
62102;SDS011;48077;48.104;11.702;2023-12-07T05:01:37;12.30;;;9.95;;
62102;SDS011;48077;48.104;11.702;2023-12-07T05:04:05;16.38;;;11.48;;
62102;SDS011;48077;48.104;11.702;2023-12-07T05:06:34;11.95;;;9.15;;
62102;SDS011;48077;48.104;11.702;2023-12-07T05:09:02;13.43;;;10.48;;
62102;SDS011;48077;48.104;11.702;2023-12-07T05:11:30;14.52;;;9.40;;
62102;SDS011;48077;48.104;11.702;2023-12-07T05:13:59;13.82;;;12.18;;
62102;SDS011;48077;48.104;11.702;2023-12-07T05:16:27;14.48;;;11.30;;
62102;SDS011;48077;48.104;11.702;2023-12-07T05:21:23;11.10;;;7.57;;
62102;SDS011;48077;48.104;11.702;2023-12-07T05:26:18;12.07;;;10.02;;
62102;SDS011;48077;48.104;11.702;2023-12-07T05:28:47;12.68;;;9.18;;
62102;SDS011;48077;48.104;11.702;2023-12-07T05:31:17;13.60;;;10.25;;
62102;SDS011;48077;48.104;11.702;2023-12-07T05:33:46;11.70;;;10.45;;
62102;SDS011;48077;48.104;11.702;2023-12-07T05:36:13;11.98;;;10.02;;
62102;SDS011;48077;48.104;11.702;2023-12-07T05:38:42;11.60;;;9.80;;
62102;SDS011;48077;48.104;11.702;2023-12-07T05:41:09;13.07;;;10.82;;
62102;SDS011;48077;48.104;11.702;2023-12-07T05:43:40;16.42;;;11.15;;
62102;SDS011;48077;48.104;11.702;2023-12-07T05:46:09;12.05;;;9.73;;
62102;SDS011;48077;48.104;11.702;2023-12-07T05:48:38;12.88;;;10.27;;
62102;SDS011;48077;48.104;11.702;2023-12-07T05:51:11;15.13;;;11.35;;
62102;SDS011;48077;48.104;11.702;2023-12-07T05:53:40;15.88;;;9.95;;
62102;SDS011;48077;48.104;11.702;2023-12-07T05:56:08;14.73;;;9.63;;
62102;SDS011;48077;48.104;11.702;2023-12-07T05:58:36;11.98;;;9.38;;
62102;SDS011;48077;48.104;11.702;2023-12-07T06:01:04;13.45;;;10.73;;
62102;SDS011;48077;48.104;11.702;2023-12-07T06:03:34;14.63;;;12.07;;
62102;SDS011;48077;48.104;11.702;2023-12-07T06:06:03;12.23;;;10.35;;
62102;SDS011;48077;48.104;11.702;2023-12-07T06:08:31;13.30;;;9.63;;
62102;SDS011;48077;48.104;11.702;2023-12-07T06:11:00;12.85;;;9.20;;
62102;SDS011;48077;48.104;11.702;2023-12-07T06:13:28;12.68;;;9.68;;
62102;SDS011;48077;48.104;11.702;2023-12-07T06:15:55;11.95;;;10.00;;
62102;SDS011;48077;48.104;11.702;2023-12-07T06:18:23;10.75;;;7.57;;
62102;SDS011;48077;48.104;11.702;2023-12-07T06:20:51;11.57;;;8.77;;
62102;SDS011;48077;48.104;11.702;2023-12-07T06:23:20;14.55;;;10.02;;
62102;SDS011;48077;48.104;11.702;2023-12-07T06:25:48;12.05;;;9.88;;
62102;SDS011;48077;48.104;11.702;2023-12-07T06:28:15;12.82;;;11.52;;
62102;SDS011;48077;48.104;11.702;2023-12-07T06:30:43;11.93;;;9.80;;
62102;SDS011;48077;48.104;11.702;2023-12-07T06:33:11;11.98;;;10.48;;
62102;SDS011;48077;48.104;11.702;2023-12-07T06:35:39;14.18;;;9.90;;
62102;SDS011;48077;48.104;11.702;2023-12-07T06:38:07;11.27;;;9.38;;
62102;SDS011;48077;48.104;11.702;2023-12-07T06:40:36;13.88;;;12.15;;
62102;SDS011;48077;48.104;11.702;2023-12-07T06:43:03;15.68;;;11.63;;
62102;SDS011;48077;48.104;11.702;2023-12-07T06:45:31;10.93;;;9.32;;
62102;SDS011;48077;48.104;11.702;2023-12-07T06:47:59;14.00;;;10.93;;
62102;SDS011;48077;48.104;11.702;2023-12-07T06:50:28;15.70;;;12.02;;
62102;SDS011;48077;48.104;11.702;2023-12-07T06:52:55;15.00;;;11.73;;
62102;SDS011;48077;48.104;11.702;2023-12-07T06:55:23;14.20;;;11.10;;
62102;SDS011;48077;48.104;11.702;2023-12-07T06:57:52;12.25;;;9.98;;
62102;SDS011;48077;48.104;11.702;2023-12-07T07:00:20;13.88;;;11.38;;
62102;SDS011;48077;48.104;11.702;2023-12-07T07:05:15;10.73;;;9.13;;
62102;SDS011;48077;48.104;11.702;2023-12-07T07:07:43;12.20;;;9.52;;
62102;SDS011;48077;48.104;11.702;2023-12-07T07:10:11;12.70;;;9.82;;
62102;SDS011;48077;48.104;11.702;2023-12-07T07:12:39;13.20;;;10.95;;
62102;SDS011;48077;48.104;11.702;2023-12-07T07:17:37;10.50;;;8.98;;
62102;SDS011;48077;48.104;11.702;2023-12-07T07:20:05;14.68;;;9.60;;
62102;SDS011;48077;48.104;11.702;2023-12-07T07:22:33;13.40;;;8.98;;
62102;SDS011;48077;48.104;11.702;2023-12-07T07:25:01;13.73;;;9.10;;
62102;SDS011;48077;48.104;11.702;2023-12-07T07:27:30;13.98;;;11.63;;
62102;SDS011;48077;48.104;11.702;2023-12-07T07:29:58;12.43;;;10.93;;
62102;SDS011;48077;48.104;11.702;2023-12-07T07:32:27;13.63;;;9.82;;
62102;SDS011;48077;48.104;11.702;2023-12-07T07:34:55;12.43;;;10.52;;
62102;SDS011;48077;48.104;11.702;2023-12-07T07:37:23;11.32;;;7.90;;
62102;SDS011;48077;48.104;11.702;2023-12-07T07:39:51;12.00;;;10.30;;
62102;SDS011;48077;48.104;11.702;2023-12-07T07:42:19;13.77;;;9.18;;
62102;SDS011;48077;48.104;11.702;2023-12-07T07:44:46;11.57;;;9.32;;
62102;SDS011;48077;48.104;11.702;2023-12-07T07:47:14;14.15;;;10.43;;
62102;SDS011;48077;48.104;11.702;2023-12-07T07:49:43;14.52;;;11.32;;
62102;SDS011;48077;48.104;11.702;2023-12-07T07:52:11;13.13;;;10.80;;
62102;SDS011;48077;48.104;11.702;2023-12-07T07:54:39;13.10;;;10.48;;
62102;SDS011;48077;48.104;11.702;2023-12-07T07:57:06;13.40;;;11.95;;
62102;SDS011;48077;48.104;11.702;2023-12-07T07:59:34;11.98;;;10.57;;
62102;SDS011;48077;48.104;11.702;2023-12-07T08:02:02;13.57;;;10.65;;
62102;SDS011;48077;48.104;11.702;2023-12-07T08:06:58;11.68;;;10.15;;
62102;SDS011;48077;48.104;11.702;2023-12-07T08:09:26;15.82;;;14.13;;
62102;SDS011;48077;48.104;11.702;2023-12-07T08:11:54;13.10;;;9.70;;
62102;SDS011;48077;48.104;11.702;2023-12-07T08:14:22;17.23;;;11.18;;
62102;SDS011;48077;48.104;11.702;2023-12-07T08:16:49;14.85;;;13.10;;
62102;SDS011;48077;48.104;11.702;2023-12-07T08:19:17;16.40;;;11.88;;
62102;SDS011;48077;48.104;11.702;2023-12-07T08:24:14;15.65;;;14.15;;
62102;SDS011;48077;48.104;11.702;2023-12-07T08:26:42;12.68;;;9.75;;
62102;SDS011;48077;48.104;11.702;2023-12-07T08:29:10;14.57;;;10.60;;
62102;SDS011;48077;48.104;11.702;2023-12-07T08:34:07;11.20;;;9.52;;
62102;SDS011;48077;48.104;11.702;2023-12-07T08:36:35;12.18;;;9.52;;
62102;SDS011;48077;48.104;11.702;2023-12-07T08:39:02;13.80;;;10.57;;
62102;SDS011;48077;48.104;11.702;2023-12-07T08:41:31;12.15;;;10.23;;
62102;SDS011;48077;48.104;11.702;2023-12-07T08:44:00;13.85;;;9.95;;
62102;SDS011;48077;48.104;11.702;2023-12-07T08:46:31;12.85;;;10.40;;
62102;SDS011;48077;48.104;11.702;2023-12-07T08:49:00;13.43;;;10.40;;
62102;SDS011;48077;48.104;11.702;2023-12-07T08:51:28;14.40;;;11.38;;
62102;SDS011;48077;48.104;11.702;2023-12-07T08:56:23;13.75;;;12.40;;
62102;SDS011;48077;48.104;11.702;2023-12-07T08:58:53;13.63;;;12.23;;
62102;SDS011;48077;48.104;11.702;2023-12-07T09:01:20;15.75;;;10.98;;
62102;SDS011;48077;48.104;11.702;2023-12-07T09:03:58;13.60;;;9.90;;
62102;SDS011;48077;48.104;11.702;2023-12-07T09:06:26;15.52;;;11.50;;
62102;SDS011;48077;48.104;11.702;2023-12-07T09:08:54;12.43;;;9.63;;
62102;SDS011;48077;48.104;11.702;2023-12-07T09:11:22;11.13;;;7.57;;
62102;SDS011;48077;48.104;11.702;2023-12-07T09:13:50;12.13;;;8.73;;
62102;SDS011;48077;48.104;11.702;2023-12-07T09:16:19;13.43;;;9.98;;
62102;SDS011;48077;48.104;11.702;2023-12-07T09:18:48;8.73;;;6.47;;
62102;SDS011;48077;48.104;11.702;2023-12-07T09:21:16;12.60;;;9.48;;
62102;SDS011;48077;48.104;11.702;2023-12-07T09:23:44;15.95;;;11.23;;
62102;SDS011;48077;48.104;11.702;2023-12-07T09:26:12;15.07;;;8.98;;
62102;SDS011;48077;48.104;11.702;2023-12-07T09:28:40;10.55;;;8.00;;
62102;SDS011;48077;48.104;11.702;2023-12-07T09:33:37;12.48;;;9.50;;
62102;SDS011;48077;48.104;11.702;2023-12-07T09:38:34;9.70;;;8.70;;
62102;SDS011;48077;48.104;11.702;2023-12-07T09:41:03;11.20;;;9.95;;
62102;SDS011;48077;48.104;11.702;2023-12-07T09:43:32;9.70;;;8.55;;
62102;SDS011;48077;48.104;11.702;2023-12-07T09:45:59;8.35;;;7.65;;
62102;SDS011;48077;48.104;11.702;2023-12-07T09:48:29;8.32;;;7.50;;
62102;SDS011;48077;48.104;11.702;2023-12-07T09:50:57;9.82;;;8.52;;
62102;SDS011;48077;48.104;11.702;2023-12-07T09:53:27;9.15;;;8.13;;
62102;SDS011;48077;48.104;11.702;2023-12-07T09:55:56;10.32;;;6.15;;
62102;SDS011;48077;48.104;11.702;2023-12-07T09:58:24;6.82;;;6.07;;
62102;SDS011;48077;48.104;11.702;2023-12-07T10:01:04;8.63;;;7.10;;
62102;SDS011;48077;48.104;11.702;2023-12-07T10:03:33;9.75;;;7.25;;
62102;SDS011;48077;48.104;11.702;2023-12-07T10:06:01;7.43;;;6.63;;
62102;SDS011;48077;48.104;11.702;2023-12-07T10:08:30;7.75;;;7.05;;
62102;SDS011;48077;48.104;11.702;2023-12-07T10:11:02;8.23;;;6.97;;
62102;SDS011;48077;48.104;11.702;2023-12-07T10:13:32;7.13;;;6.47;;
62102;SDS011;48077;48.104;11.702;2023-12-07T10:16:10;8.55;;;7.35;;
62102;SDS011;48077;48.104;11.702;2023-12-07T10:18:42;7.05;;;6.22;;
62102;SDS011;48077;48.104;11.702;2023-12-07T10:21:11;8.43;;;7.70;;
62102;SDS011;48077;48.104;11.702;2023-12-07T10:23:41;9.15;;;7.68;;
62102;SDS011;48077;48.104;11.702;2023-12-07T10:26:13;8.55;;;7.75;;
62102;SDS011;48077;48.104;11.702;2023-12-07T10:28:42;8.90;;;7.22;;
62102;SDS011;48077;48.104;11.702;2023-12-07T10:31:10;8.60;;;7.53;;
62102;SDS011;48077;48.104;11.702;2023-12-07T10:36:08;8.32;;;7.07;;
62102;SDS011;48077;48.104;11.702;2023-12-07T10:38:38;9.65;;;6.90;;
62102;SDS011;48077;48.104;11.702;2023-12-07T10:41:08;8.13;;;6.50;;
62102;SDS011;48077;48.104;11.702;2023-12-07T10:43:42;7.68;;;6.50;;
62102;SDS011;48077;48.104;11.702;2023-12-07T10:46:11;8.82;;;7.97;;
62102;SDS011;48077;48.104;11.702;2023-12-07T10:48:43;8.20;;;7.05;;
62102;SDS011;48077;48.104;11.702;2023-12-07T10:51:17;8.30;;;6.45;;
62102;SDS011;48077;48.104;11.702;2023-12-07T10:53:50;10.15;;;6.50;;
62102;SDS011;48077;48.104;11.702;2023-12-07T10:56:21;7.57;;;6.63;;
62102;SDS011;48077;48.104;11.702;2023-12-07T10:58:55;7.78;;;6.75;;
62102;SDS011;48077;48.104;11.702;2023-12-07T11:01:25;10.85;;;8.45;;
62102;SDS011;48077;48.104;11.702;2023-12-07T11:03:53;9.20;;;7.68;;
62102;SDS011;48077;48.104;11.702;2023-12-07T11:06:25;9.43;;;7.63;;
62102;SDS011;48077;48.104;11.702;2023-12-07T11:08:54;7.57;;;6.70;;
62102;SDS011;48077;48.104;11.702;2023-12-07T11:11:27;6.65;;;5.90;;
62102;SDS011;48077;48.104;11.702;2023-12-07T11:13:59;7.13;;;6.53;;
62102;SDS011;48077;48.104;11.702;2023-12-07T11:16:30;7.20;;;6.55;;
62102;SDS011;48077;48.104;11.702;2023-12-07T11:19:01;5.85;;;5.30;;
62102;SDS011;48077;48.104;11.702;2023-12-07T11:21:31;5.45;;;4.95;;
62102;SDS011;48077;48.104;11.702;2023-12-07T11:23:59;5.00;;;4.60;;
62102;SDS011;48077;48.104;11.702;2023-12-07T11:26:27;5.15;;;4.75;;
62102;SDS011;48077;48.104;11.702;2023-12-07T11:28:55;5.93;;;4.05;;
62102;SDS011;48077;48.104;11.702;2023-12-07T11:31:23;5.32;;;4.82;;
62102;SDS011;48077;48.104;11.702;2023-12-07T11:33:52;4.10;;;3.80;;
62102;SDS011;48077;48.104;11.702;2023-12-07T11:36:21;4.55;;;4.15;;
62102;SDS011;48077;48.104;11.702;2023-12-07T11:41:55;5.32;;;4.88;;
62102;SDS011;48077;48.104;11.702;2023-12-07T11:44:33;5.20;;;4.80;;
62102;SDS011;48077;48.104;11.702;2023-12-07T11:47:01;4.43;;;4.03;;
62102;SDS011;48077;48.104;11.702;2023-12-07T11:49:29;5.10;;;4.70;;
62102;SDS011;48077;48.104;11.702;2023-12-07T11:52:12;3.92;;;3.63;;
62102;SDS011;48077;48.104;11.702;2023-12-07T11:54:43;4.18;;;3.80;;
62102;SDS011;48077;48.104;11.702;2023-12-07T11:57:12;3.95;;;3.65;;
62102;SDS011;48077;48.104;11.702;2023-12-07T11:59:41;4.32;;;3.92;;
62102;SDS011;48077;48.104;11.702;2023-12-07T12:02:10;4.47;;;4.15;;
62102;SDS011;48077;48.104;11.702;2023-12-07T12:04:39;5.47;;;5.07;;
62102;SDS011;48077;48.104;11.702;2023-12-07T12:07:08;4.22;;;3.83;;
62102;SDS011;48077;48.104;11.702;2023-12-07T12:09:37;4.75;;;4.38;;
62102;SDS011;48077;48.104;11.702;2023-12-07T12:12:07;4.45;;;4.13;;
62102;SDS011;48077;48.104;11.702;2023-12-07T12:14:35;4.95;;;4.55;;
62102;SDS011;48077;48.104;11.702;2023-12-07T12:17:03;7.57;;;6.88;;
62102;SDS011;48077;48.104;11.702;2023-12-07T12:19:32;6.55;;;5.97;;
62102;SDS011;48077;48.104;11.702;2023-12-07T12:22:02;6.00;;;5.40;;
62102;SDS011;48077;48.104;11.702;2023-12-07T12:24:33;5.80;;;5.30;;
62102;SDS011;48077;48.104;11.702;2023-12-07T12:27:01;5.10;;;4.70;;
62102;SDS011;48077;48.104;11.702;2023-12-07T12:29:32;5.00;;;4.60;;
62102;SDS011;48077;48.104;11.702;2023-12-07T12:32:01;4.82;;;4.15;;
62102;SDS011;48077;48.104;11.702;2023-12-07T12:34:32;6.38;;;5.90;;
62102;SDS011;48077;48.104;11.702;2023-12-07T12:37:01;4.28;;;3.88;;
62102;SDS011;48077;48.104;11.702;2023-12-07T12:39:32;5.95;;;5.43;;
62102;SDS011;48077;48.104;11.702;2023-12-07T12:42:00;4.50;;;4.20;;
62102;SDS011;48077;48.104;11.702;2023-12-07T12:44:32;4.57;;;4.28;;
62102;SDS011;48077;48.104;11.702;2023-12-07T12:47:04;5.50;;;5.00;;
62102;SDS011;48077;48.104;11.702;2023-12-07T12:49:35;5.32;;;5.03;;
62102;SDS011;48077;48.104;11.702;2023-12-07T12:52:04;4.95;;;4.60;;
62102;SDS011;48077;48.104;11.702;2023-12-07T12:54:36;4.93;;;4.50;;
62102;SDS011;48077;48.104;11.702;2023-12-07T12:57:05;3.45;;;2.47;;
62102;SDS011;48077;48.104;11.702;2023-12-07T12:59:35;5.05;;;4.65;;
62102;SDS011;48077;48.104;11.702;2023-12-07T13:02:03;5.22;;;4.85;;
62102;SDS011;48077;48.104;11.702;2023-12-07T13:04:31;4.63;;;4.25;;
62102;SDS011;48077;48.104;11.702;2023-12-07T13:07:03;4.68;;;4.28;;
62102;SDS011;48077;48.104;11.702;2023-12-07T13:09:31;5.13;;;4.82;;
62102;SDS011;48077;48.104;11.702;2023-12-07T13:12:01;6.68;;;6.18;;
62102;SDS011;48077;48.104;11.702;2023-12-07T13:14:31;8.82;;;7.63;;
62102;SDS011;48077;48.104;11.702;2023-12-07T13:17:03;5.35;;;4.95;;
62102;SDS011;48077;48.104;11.702;2023-12-07T13:19:31;5.28;;;4.88;;
62102;SDS011;48077;48.104;11.702;2023-12-07T13:21:59;5.30;;;4.85;;
62102;SDS011;48077;48.104;11.702;2023-12-07T13:24:28;4.63;;;4.32;;
62102;SDS011;48077;48.104;11.702;2023-12-07T13:26:56;5.30;;;4.80;;
62102;SDS011;48077;48.104;11.702;2023-12-07T13:29:24;6.28;;;5.78;;
62102;SDS011;48077;48.104;11.702;2023-12-07T13:32:01;5.63;;;5.13;;
62102;SDS011;48077;48.104;11.702;2023-12-07T13:34:31;5.03;;;4.63;;
62102;SDS011;48077;48.104;11.702;2023-12-07T13:36:59;5.05;;;4.20;;
62102;SDS011;48077;48.104;11.702;2023-12-07T13:39:27;4.93;;;4.63;;
62102;SDS011;48077;48.104;11.702;2023-12-07T13:41:57;5.03;;;4.70;;
62102;SDS011;48077;48.104;11.702;2023-12-07T13:44:29;5.00;;;4.60;;
62102;SDS011;48077;48.104;11.702;2023-12-07T13:46:59;4.47;;;2.70;;
62102;SDS011;48077;48.104;11.702;2023-12-07T13:49:28;5.32;;;4.80;;
62102;SDS011;48077;48.104;11.702;2023-12-07T13:51:59;4.60;;;3.83;;
62102;SDS011;48077;48.104;11.702;2023-12-07T13:54:33;6.10;;;5.60;;
62102;SDS011;48077;48.104;11.702;2023-12-07T13:57:19;4.10;;;3.70;;
62102;SDS011;48077;48.104;11.702;2023-12-07T13:59:47;5.38;;;4.88;;
62102;SDS011;48077;48.104;11.702;2023-12-07T14:02:17;6.63;;;6.03;;
62102;SDS011;48077;48.104;11.702;2023-12-07T14:04:46;5.63;;;5.13;;
62102;SDS011;48077;48.104;11.702;2023-12-07T14:07:17;6.88;;;6.18;;
62102;SDS011;48077;48.104;11.702;2023-12-07T14:09:47;5.93;;;5.15;;
62102;SDS011;48077;48.104;11.702;2023-12-07T14:12:24;6.57;;;6.05;;
62102;SDS011;48077;48.104;11.702;2023-12-07T14:14:56;7.13;;;6.13;;
62102;SDS011;48077;48.104;11.702;2023-12-07T14:17:24;6.30;;;5.38;;
62102;SDS011;48077;48.104;11.702;2023-12-07T14:20:05;5.97;;;5.47;;
62102;SDS011;48077;48.104;11.702;2023-12-07T14:22:53;5.68;;;5.18;;
62102;SDS011;48077;48.104;11.702;2023-12-07T14:25:22;5.43;;;5.03;;
62102;SDS011;48077;48.104;11.702;2023-12-07T14:27:50;6.70;;;6.05;;
62102;SDS011;48077;48.104;11.702;2023-12-07T14:32:46;6.88;;;6.05;;
62102;SDS011;48077;48.104;11.702;2023-12-07T14:35:20;7.03;;;6.32;;
62102;SDS011;48077;48.104;11.702;2023-12-07T14:37:49;7.30;;;6.63;;
62102;SDS011;48077;48.104;11.702;2023-12-07T14:40:17;7.40;;;6.70;;
62102;SDS011;48077;48.104;11.702;2023-12-07T14:42:45;9.00;;;8.10;;
62102;SDS011;48077;48.104;11.702;2023-12-07T14:45:15;7.00;;;6.05;;
62102;SDS011;48077;48.104;11.702;2023-12-07T14:47:46;8.63;;;7.53;;
62102;SDS011;48077;48.104;11.702;2023-12-07T14:50:15;9.10;;;5.90;;
62102;SDS011;48077;48.104;11.702;2023-12-07T14:52:44;8.27;;;6.82;;
62102;SDS011;48077;48.104;11.702;2023-12-07T14:55:12;7.18;;;6.47;;
62102;SDS011;48077;48.104;11.702;2023-12-07T14:57:40;7.03;;;6.18;;
62102;SDS011;48077;48.104;11.702;2023-12-07T15:00:08;6.68;;;5.88;;
62102;SDS011;48077;48.104;11.702;2023-12-07T15:02:36;7.70;;;6.57;;
62102;SDS011;48077;48.104;11.702;2023-12-07T15:05:04;9.07;;;6.35;;
62102;SDS011;48077;48.104;11.702;2023-12-07T15:07:34;10.52;;;7.47;;
62102;SDS011;48077;48.104;11.702;2023-12-07T15:10:03;8.02;;;6.85;;
62102;SDS011;48077;48.104;11.702;2023-12-07T15:12:32;10.38;;;8.10;;
62102;SDS011;48077;48.104;11.702;2023-12-07T15:15:00;10.48;;;8.75;;
62102;SDS011;48077;48.104;11.702;2023-12-07T15:19:55;8.52;;;6.50;;
62102;SDS011;48077;48.104;11.702;2023-12-07T15:22:24;7.57;;;6.30;;
62102;SDS011;48077;48.104;11.702;2023-12-07T15:24:52;6.45;;;5.82;;
62102;SDS011;48077;48.104;11.702;2023-12-07T15:27:22;7.93;;;7.05;;
62102;SDS011;48077;48.104;11.702;2023-12-07T15:29:51;8.15;;;6.25;;